Time;durP1;ratioP1;P1;durP2;ratioP2;P2;SDS_P1;SDS_P2;PMS_P1;PMS_P2;Temp;Humidity;BMP_temperature;BMP_pressure;BME280_temperature;BME280_humidity;BME280_pressure;Samples;Min_cycle;Max_cycle;Signal;HPM_P1;HPM_P2
2021/05/30 00:02:02;;;;;;;10.70;4.20;;;38.70;12.40;;;;;;5035106;28;20093;-65
2021/05/30 00:04:28;;;;;;;12.80;5.72;;;38.70;13.10;;;;;;5035182;28;20101;-65
2021/05/30 00:06:55;;;;;;;21.83;12.60;;;38.80;13.10;;;;;;5035863;28;20085;-65
2021/05/30 00:09:21;;;;;;;21.20;10.60;;;38.90;13.00;;;;;;5035746;28;20081;-66
2021/05/30 00:11:48;;;;;;;16.77;9.82;;;38.90;12.60;;;;;;5033814;28;20077;-65
2021/05/30 00:14:14;;;;;;;36.35;19.65;;;38.70;12.60;;;;;;5039371;28;20077;-64
2021/05/30 00:16:41;;;;;;;15.45;4.00;;;38.70;12.60;;;;;;5039662;28;20077;-64
2021/05/30 00:19:07;;;;;;;20.13;3.72;;;38.60;12.70;;;;;;5039276;28;20074;-66
2021/05/30 00:21:34;;;;;;;11.00;3.38;;;38.60;13.10;;;;;;5038424;28;20108;-65
2021/05/30 00:24:00;;;;;;;16.10;2.50;;;38.60;12.60;;;;;;5044004;28;20066;-66
2021/05/30 00:26:27;;;;;;;4.22;1.55;;;38.60;11.10;;;;;;5038902;28;20462;-66
2021/05/30 00:28:53;;;;;;;10.43;1.70;;;38.70;9.80;;;;;;5036630;28;20078;-66
2021/05/30 00:31:20;;;;;;;6.95;2.25;;;38.70;9.10;;;;;;5040354;28;20211;-65
2021/05/30 00:33:48;;;;;;;10.05;1.77;;;38.70;9.20;;;;;;5054306;28;20090;-66
2021/05/30 00:36:14;;;;;;;6.47;1.27;;;38.70;9.10;;;;;;5041055;28;20101;-67
2021/05/30 00:38:41;;;;;;;5.80;1.55;;;38.60;8.90;;;;;;5034365;28;20077;-66
2021/05/30 00:41:07;;;;;;;9.65;2.17;;;38.50;8.90;;;;;;5037968;28;20519;-66
2021/05/30 00:43:45;;;;;;;8.07;1.40;;;38.40;8.80;;;;;;5040925;28;20549;-65
2021/05/30 00:46:11;;;;;;;7.07;2.08;;;38.30;8.20;;;;;;5038798;28;20078;-66
2021/05/30 00:48:38;;;;;;;9.93;2.03;;;38.40;8.30;;;;;;5036805;28;20119;-67
2021/05/30 00:51:05;;;;;;;11.35;1.45;;;38.40;9.00;;;;;;5038961;28;20113;-66
2021/05/30 00:53:34;;;;;;;5.35;1.50;;;38.40;9.00;;;;;;5037060;28;20119;-66
2021/05/30 00:56:04;;;;;;;6.38;1.75;;;38.40;8.30;;;;;;5037990;28;20070;-66
2021/05/30 00:58:31;;;;;;;11.55;2.05;;;38.40;8.70;;;;;;5040082;28;20077;-66
2021/05/30 01:00:57;;;;;;;7.82;1.60;;;38.30;8.60;;;;;;5039235;28;20082;-67
2021/05/30 01:03:24;;;;;;;5.38;1.48;;;38.10;8.40;;;;;;5043098;28;20098;-66
2021/05/30 01:05:50;;;;;;;5.15;1.25;;;38.00;8.50;;;;;;5039517;28;20553;-66
2021/05/30 01:08:25;;;;;;;9.75;1.33;;;38.00;8.80;;;;;;5042161;28;20208;-66
2021/05/30 01:10:54;;;;;;;9.52;1.45;;;37.90;8.60;;;;;;5037227;28;20080;-66
2021/05/30 01:13:21;;;;;;;10.00;1.50;;;37.80;8.70;;;;;;5038871;28;20089;-67
2021/05/30 01:15:48;;;;;;;9.88;1.63;;;37.70;8.40;;;;;;5037424;28;20131;-67
2021/05/30 01:18:21;;;;;;;12.52;1.50;;;37.70;9.10;;;;;;5028599;28;20539;-67
2021/05/30 01:20:48;;;;;;;9.45;1.67;;;37.50;8.40;;;;;;5038424;28;20171;-68
2021/05/30 01:23:18;;;;;;;7.22;1.27;;;37.40;9.10;;;;;;5041944;28;20189;-68
2021/05/30 01:25:46;;;;;;;10.23;1.50;;;37.20;8.40;;;;;;5040640;28;20092;-67
2021/05/30 01:28:13;;;;;;;8.27;1.30;;;37.10;8.70;;;;;;5038836;28;20077;-68
2021/05/30 01:30:40;;;;;;;8.48;1.50;;;37.00;8.60;;;;;;5037110;28;20085;-68
2021/05/30 01:33:07;;;;;;;9.95;1.60;;;37.00;9.10;;;;;;5045356;28;20618;-67
2021/05/30 01:35:34;;;;;;;13.02;1.60;;;36.90;9.40;;;;;;5044536;28;20200;-68
2021/05/30 01:38:00;;;;;;;17.08;2.13;;;36.80;10.30;;;;;;5041969;28;20097;-67
2021/05/30 01:40:27;;;;;;;16.58;1.90;;;36.80;10.60;;;;;;5043444;28;20080;-67
2021/05/30 01:42:55;;;;;;;11.23;2.00;;;36.60;10.50;;;;;;5036091;28;20582;-67
2021/05/30 01:45:24;;;;;;;8.95;1.70;;;36.50;10.40;;;;;;5040982;28;20088;-67
2021/05/30 01:47:50;;;;;;;21.10;2.60;;;36.50;10.80;;;;;;5035727;28;20098;-67
2021/05/30 01:50:19;;;;;;;17.70;2.42;;;36.40;11.30;;;;;;5042813;28;20070;-68
2021/05/30 01:52:48;;;;;;;10.82;2.25;;;36.30;11.50;;;;;;5039799;28;20101;-67
2021/05/30 01:58:03;;;;;;;15.73;2.03;;;36.00;12.10;;;;;;5021503;28;20090;-68
2021/05/30 02:00:30;;;;;;;11.43;1.70;;;35.80;12.30;;;;;;5039466;28;20074;-68
2021/05/30 02:02:57;;;;;;;21.00;2.28;;;35.70;12.40;;;;;;5036527;28;20197;-68
2021/05/30 02:05:24;;;;;;;13.38;2.42;;;35.60;12.40;;;;;;5040325;28;20101;-67
2021/05/30 02:07:52;;;;;;;7.68;2.05;;;35.50;13.00;;;;;;5041093;28;20070;-65
2021/05/30 02:10:21;;;;;;;9.45;1.90;;;35.40;12.90;;;;;;5038553;28;20066;-66
2021/05/30 02:12:53;;;;;;;13.40;2.40;;;35.20;13.00;;;;;;5041013;28;20078;-66
2021/05/30 02:15:21;;;;;;;10.02;1.90;;;35.10;13.50;;;;;;5042759;28;20160;-66
2021/05/30 02:17:48;;;;;;;16.38;2.42;;;34.90;13.40;;;;;;5035578;28;20070;-65
2021/05/30 02:20:16;;;;;;;17.77;4.70;;;34.80;13.70;;;;;;5039959;28;20128;-65
2021/05/30 02:22:43;;;;;;;17.80;3.90;;;34.70;13.60;;;;;;5056404;28;20102;-65
2021/05/30 02:25:11;;;;;;;17.13;2.90;;;34.50;13.90;;;;;;5036025;28;20108;-67
2021/05/30 02:27:38;;;;;;;13.95;2.58;;;34.40;14.20;;;;;;5041646;28;20105;-66
2021/05/30 02:30:06;;;;;;;17.08;2.85;;;34.30;14.00;;;;;;5041296;28;20073;-67
2021/05/30 02:32:32;;;;;;;19.67;2.47;;;34.30;14.00;;;;;;5034848;28;20515;-66
2021/05/30 02:34:59;;;;;;;14.13;2.33;;;34.20;14.00;;;;;;5040971;28;20066;-66
2021/05/30 02:37:25;;;;;;;21.38;2.47;;;34.10;13.90;;;;;;5042015;28;20081;-66
2021/05/30 02:39:52;;;;;;;17.52;2.33;;;34.00;14.20;;;;;;5042347;28;20070;-67
2021/05/30 02:42:18;;;;;;;8.38;1.90;;;33.90;14.00;;;;;;5040800;28;20197;-66
2021/05/30 02:44:46;;;;;;;11.48;2.58;;;33.90;14.30;;;;;;5041612;28;20147;-67
2021/05/30 02:47:13;;;;;;;16.60;2.45;;;33.70;14.40;;;;;;5042876;28;20065;-66
2021/05/30 02:49:39;;;;;;;18.98;3.00;;;33.70;14.90;;;;;;5041337;28;20550;-66
2021/05/30 02:52:06;;;;;;;15.48;3.08;;;33.60;14.70;;;;;;5043404;28;20086;-66
2021/05/30 02:54:33;;;;;;;23.75;3.10;;;33.60;14.80;;;;;;5040887;28;20561;-66
2021/05/30 02:56:59;;;;;;;23.73;3.20;;;33.50;14.90;;;;;;5042972;28;20085;-66
2021/05/30 02:59:26;;;;;;;23.30;3.42;;;33.40;14.80;;;;;;5044343;28;20077;-66
2021/05/30 03:01:52;;;;;;;16.35;2.92;;;33.30;15.30;;;;;;5040031;28;20089;-66
2021/05/30 03:04:19;;;;;;;23.27;3.13;;;33.20;15.80;;;;;;5040990;28;20212;-66
2021/05/30 03:06:45;;;;;;;25.88;2.88;;;33.10;15.70;;;;;;5041028;28;20084;-66
2021/05/30 03:09:12;;;;;;;24.15;2.97;;;33.10;15.80;;;;;;5041230;28;20404;-66
2021/05/30 03:11:38;;;;;;;20.23;2.88;;;33.00;16.00;;;;;;5042451;28;20093;-65
2021/05/30 03:14:05;;;;;;;32.03;2.90;;;32.90;16.20;;;;;;5038615;28;20073;-66
2021/05/30 03:16:31;;;;;;;14.25;2.40;;;32.80;16.40;;;;;;5039859;28;20084;-66
2021/05/30 03:18:58;;;;;;;14.82;3.28;;;32.70;16.20;;;;;;5042224;28;20135;-67
2021/05/30 03:21:24;;;;;;;23.10;3.28;;;32.60;16.20;;;;;;5038021;28;20080;-66
2021/05/30 03:23:51;;;;;;;25.40;4.18;;;32.50;16.10;;;;;;5041491;28;20085;-66
2021/05/30 03:26:17;;;;;;;22.92;3.50;;;32.40;16.10;;;;;;5040284;28;20078;-66
2021/05/30 03:28:44;;;;;;;17.10;3.45;;;32.30;16.10;;;;;;5039401;28;20165;-65
2021/05/30 03:31:10;;;;;;;21.45;3.30;;;32.20;15.40;;;;;;5040044;28;20438;-65
2021/05/30 03:33:37;;;;;;;15.50;3.15;;;32.20;29.80;;;;;;5038160;28;20078;-65
2021/05/30 03:36:07;;;;;;;20.33;3.10;;;31.90;19.70;;;;;;5041878;28;20072;-65
2021/05/30 03:38:34;;;;;;;23.08;3.17;;;31.30;28.90;;;;;;5041234;28;20481;-67
2021/05/30 03:41:09;;;;;;;23.67;3.75;;;31.70;15.50;;;;;;5041638;28;20056;-66
2021/05/30 03:43:35;;;;;;;28.15;3.42;;;31.80;15.90;;;;;;5040617;28;20089;-66
2021/05/30 03:46:03;;;;;;;17.38;3.38;;;31.70;15.90;;;;;;5041624;28;20092;-67
2021/05/30 03:48:29;;;;;;;31.55;3.83;;;31.60;16.00;;;;;;5042920;28;20078;-67
2021/05/30 03:50:56;;;;;;;20.33;3.92;;;31.50;15.80;;;;;;5042301;28;20077;-65
2021/05/30 03:53:23;;;;;;;16.80;3.67;;;31.50;16.10;;;;;;5044219;28;20073;-65
2021/05/30 03:55:50;;;;;;;19.23;3.95;;;31.50;16.70;;;;;;5040143;28;20113;-65
2021/05/30 03:58:18;;;;;;;18.63;3.55;;;31.40;16.80;;;;;;5041531;28;20074;-66
2021/05/30 04:00:44;;;;;;;17.90;4.07;;;31.30;16.90;;;;;;5042967;28;21541;-66
2021/05/30 04:03:11;;;;;;;19.92;5.97;;;31.30;16.90;;;;;;5042856;28;20101;-66
2021/05/30 04:05:37;;;;;;;28.35;7.20;;;31.20;17.30;;;;;;5038242;28;20070;-67
2021/05/30 04:08:05;;;;;;;17.15;4.47;;;31.10;17.70;;;;;;5041275;28;20147;-67
2021/05/30 04:10:31;;;;;;;20.90;4.60;;;31.00;17.70;;;;;;5040929;28;20074;-66
2021/05/30 04:12:58;;;;;;;23.45;6.68;;;31.00;18.00;;;;;;5038926;28;20097;-66
2021/05/30 04:15:24;;;;;;;24.60;8.05;;;30.80;36.30;;;;;;5039345;28;20073;-67
2021/05/30 04:17:51;;;;;;;15.48;5.00;;;;;;;;;;5041881;28;20152;-67
2021/05/30 04:20:20;;;;;;;19.92;5.20;;;30.60;20.00;;;;;;5042393;28;20029;-67
2021/05/30 04:22:47;;;;;;;18.60;3.65;;;30.60;18.00;;;;;;5040386;28;20211;-67
2021/05/30 04:25:14;;;;;;;21.02;4.70;;;30.50;18.30;;;;;;5043854;28;20157;-66
2021/05/30 04:27:41;;;;;;;11.85;4.40;;;30.40;18.30;;;;;;5042579;28;20152;-66
2021/05/30 04:30:09;;;;;;;13.52;3.50;;;;;;;;;;5041947;28;20070;-66
2021/05/30 04:32:36;;;;;;;13.75;3.58;;;;;;;;;;5039453;28;20168;-66
2021/05/30 04:35:06;;;;;;;10.63;3.40;;;30.20;23.10;;;;;;5040240;28;20065;-66
2021/05/30 04:37:33;;;;;;;16.23;3.88;;;;;;;;;;5039796;28;20520;-66
2021/05/30 04:40:00;;;;;;;19.88;5.22;;;;;;;;;;5042638;28;20059;-66
2021/05/30 04:42:27;;;;;;;19.10;6.45;;;30.10;18.80;;;;;;5040548;28;20044;-66
2021/05/30 04:44:53;;;;;;;17.73;5.60;;;;;;;;;;5040689;28;20534;-67
2021/05/30 04:47:20;;;;;;;12.65;2.97;;;29.90;19.30;;;;;;5040939;28;20045;-67
2021/05/30 04:49:46;;;;;;;14.15;2.83;;;;;;;;;;5042636;28;20102;-65
2021/05/30 04:52:13;;;;;;;11.63;2.28;;;29.40;35.80;;;;;;5042230;28;20052;-67
2021/05/30 04:54:39;;;;;;;7.28;2.63;;;30.00;17.90;;;;;;5043461;28;20033;-67
2021/05/30 04:57:06;;;;;;;12.43;4.43;;;30.30;35.20;;;;;;5041959;28;20077;-67
2021/05/30 04:59:33;;;;;;;18.98;5.85;;;;;;;;;;5040481;28;20151;-66
2021/05/30 05:02:03;;;;;;;14.73;4.72;;;30.00;18.20;;;;;;5041078;28;20092;-67
2021/05/30 05:04:29;;;;;;;10.40;3.35;;;30.00;18.70;;;;;;5041020;28;20021;-67
2021/05/30 05:06:56;;;;;;;11.27;3.40;;;;;;;;;;5037524;28;20121;-67
2021/05/30 05:09:22;;;;;;;12.35;3.10;;;29.80;19.80;;;;;;5045831;28;20087;-67
2021/05/30 05:11:49;;;;;;;11.43;2.83;;;29.80;19.40;;;;;;5047631;28;20136;-67
2021/05/30 05:14:16;;;;;;;17.65;3.30;;;29.80;20.10;;;;;;5042948;28;20569;-67
2021/05/30 05:16:42;;;;;;;9.27;2.95;;;29.70;19.90;;;;;;5045050;28;20077;-66
2021/05/30 05:19:09;;;;;;;8.52;2.08;;;29.70;20.00;;;;;;5043542;28;20113;-67
2021/05/30 05:21:35;;;;;;;5.85;2.15;;;29.60;19.80;;;;;;5042299;28;20117;-67
2021/05/30 05:24:02;;;;;;;10.93;2.17;;;;;;;;;;5042943;28;20074;-66
2021/05/30 05:26:29;;;;;;;15.18;2.45;;;29.60;19.50;;;;;;5044232;28;20588;-66
2021/05/30 05:28:55;;;;;;;8.70;2.20;;;;;;;;;;5040601;28;20085;-66
2021/05/30 05:31:22;;;;;;;8.52;3.00;;;29.40;21.70;;;;;;5040650;28;20022;-66
2021/05/30 05:33:48;;;;;;;14.18;3.35;;;29.20;32.40;;;;;;5046363;28;20152;-66
2021/05/30 05:36:16;;;;;;;15.48;3.85;;;29.40;20.70;;;;;;5042712;28;20070;-66
2021/05/30 05:38:43;;;;;;;15.35;4.47;;;;;;;;;;5044563;28;20037;-66
2021/05/30 05:41:10;;;;;;;12.90;3.60;;;;;;;;;;5043071;28;20060;-66
2021/05/30 05:43:37;;;;;;;12.65;3.45;;;;;;;;;;5042718;28;20069;-65
2021/05/30 05:46:03;;;;;;;13.70;3.15;;;;;;;;;;5044137;28;20052;-65
2021/05/30 18:20:08;;;;;;;8.80;1.90;;;38.20;22.60;;;;;;5088313;27;20419;-66
2021/05/30 18:22:34;;;;;;;8.23;2.22;;;38.20;16.60;;;;;;5104766;28;20073;-65
2021/05/30 18:25:01;;;;;;;14.88;2.35;;;37.70;17.00;;;;;;5084551;28;20069;-65
2021/05/30 18:27:27;;;;;;;9.63;2.00;;;37.80;19.90;;;;;;5082522;28;20065;-66
2021/05/30 18:29:54;;;;;;;14.38;2.20;;;37.60;17.20;;;;;;5092140;28;20479;-64
2021/05/30 18:32:20;;;;;;;10.02;2.20;;;37.60;17.80;;;;;;5080158;28;20078;-64
2021/05/30 18:34:47;;;;;;;13.32;2.30;;;37.60;17.90;;;;;;5110923;28;20109;-65
2021/05/30 18:37:16;;;;;;;7.72;1.80;;;37.40;17.70;;;;;;5088484;28;20130;-64
2021/05/30 18:39:42;;;;;;;13.63;2.00;;;37.60;17.80;;;;;;5085381;28;20180;-65
2021/05/30 18:42:09;;;;;;;12.85;1.98;;;37.90;17.90;;;;;;5089364;28;20073;-64
2021/05/30 18:44:36;;;;;;;6.70;1.77;;;38.30;17.70;;;;;;5086284;28;20124;-65
2021/05/30 18:47:02;;;;;;;5.50;1.50;;;38.10;17.20;;;;;;5085352;28;20115;-65
2021/05/30 18:49:29;;;;;;;8.90;2.10;;;38.10;17.30;;;;;;5083555;28;20077;-66
2021/05/30 18:51:55;;;;;;;15.00;2.10;;;38.30;16.30;;;;;;5083981;28;20518;-67
2021/05/30 18:54:22;;;;;;;14.30;2.42;;;38.20;16.40;;;;;;5084982;28;20104;-66
2021/05/30 18:56:49;;;;;;;8.75;2.10;;;38.30;17.80;;;;;;5088871;28;20073;-65
2021/05/30 18:59:15;;;;;;;12.75;2.13;;;37.80;16.80;;;;;;5077961;28;20097;-67
2021/05/30 19:01:42;;;;;;;14.75;2.30;;;37.90;16.60;;;;;;5082513;28;20065;-66
2021/05/30 19:04:10;;;;;;;13.52;2.15;;;37.70;17.10;;;;;;5114113;27;20077;-65
2021/05/30 19:06:37;;;;;;;11.65;2.70;;;38.00;18.50;;;;;;5099126;28;20069;-66
2021/05/30 19:09:04;;;;;;;11.10;2.45;;;38.00;17.80;;;;;;5086144;28;20535;-66
2021/05/30 19:11:30;;;;;;;10.60;2.10;;;37.90;17.40;;;;;;5112066;28;20080;-67
2021/05/30 19:13:57;;;;;;;11.57;2.22;;;37.90;17.80;;;;;;5080545;28;21421;-64
2021/05/30 19:16:23;;;;;;;18.95;2.40;;;37.70;16.80;;;;;;5082303;28;20065;-66
2021/05/30 19:18:50;;;;;;;10.25;2.25;;;38.00;17.20;;;;;;5078785;28;20566;-65
2021/05/30 19:21:16;;;;;;;10.82;2.13;;;38.10;16.60;;;;;;5082633;28;20072;-65
2021/05/30 19:23:43;;;;;;;12.90;2.15;;;38.50;16.20;;;;;;5111117;27;20524;-65
2021/05/30 19:26:10;;;;;;;8.18;2.00;;;38.70;16.70;;;;;;5078538;28;20428;-65
2021/05/30 19:28:37;;;;;;;7.35;1.88;;;38.70;15.70;;;;;;5081838;28;20076;-64
2021/05/30 19:31:04;;;;;;;11.55;2.13;;;38.50;15.90;;;;;;5099323;27;20123;-65
2021/05/30 19:33:31;;;;;;;6.65;2.08;;;38.20;15.80;;;;;;5064103;28;20082;-65
2021/05/30 19:35:57;;;;;;;12.63;2.20;;;38.00;16.40;;;;;;5066536;28;20073;-64
2021/05/30 19:38:24;;;;;;;9.40;1.92;;;38.20;16.00;;;;;;5072200;28;20121;-64
2021/05/30 19:40:51;;;;;;;9.55;2.17;;;38.20;15.50;;;;;;5064767;28;20075;-64
2021/05/30 19:43:17;;;;;;;8.98;2.10;;;38.40;15.10;;;;;;5066498;28;20080;-64
2021/05/30 19:45:44;;;;;;;13.45;2.38;;;38.00;14.70;;;;;;5066503;28;20089;-64
2021/05/30 19:48:10;;;;;;;5.47;2.10;;;38.20;15.80;;;;;;5064693;28;20066;-64
2021/05/30 19:50:37;;;;;;;10.98;2.15;;;38.60;14.40;;;;;;5069544;28;20078;-64
2021/05/30 19:53:03;;;;;;;14.48;2.50;;;38.80;15.10;;;;;;5064245;28;20125;-64
2021/05/30 19:55:32;;;;;;;8.15;2.20;;;38.90;14.50;;;;;;5066776;28;20073;-64
2021/05/30 19:57:58;;;;;;;12.57;2.03;;;39.20;15.30;;;;;;5066679;28;20099;-64
2021/05/30 20:00:25;;;;;;;11.20;2.20;;;39.50;14.50;;;;;;5063244;28;20083;-64
2021/05/30 20:02:53;;;;;;;15.45;1.95;;;39.70;15.00;;;;;;5065416;28;20069;-64
2021/05/30 20:05:20;;;;;;;11.45;1.70;;;39.50;14.50;;;;;;5069214;28;20160;-64
2021/05/30 20:07:47;;;;;;;11.07;2.08;;;39.50;14.70;;;;;;5065148;28;20073;-65
2021/05/30 20:10:21;;;;;;;10.02;2.25;;;39.40;15.30;;;;;;5101411;28;20400;-65
2021/05/30 20:12:49;;;;;;;15.13;2.38;;;39.50;14.90;;;;;;5062160;28;20074;-64
2021/05/30 20:15:17;;;;;;;13.00;2.38;;;39.60;14.70;;;;;;5067824;28;20553;-65
2021/05/30 20:17:43;;;;;;;11.13;2.20;;;39.60;14.30;;;;;;5063746;28;20091;-65
2021/05/30 20:20:11;;;;;;;11.55;1.67;;;39.70;13.40;;;;;;5063943;28;20153;-65
2021/05/30 20:22:38;;;;;;;8.65;1.95;;;39.90;14.20;;;;;;5067075;28;20618;-66
2021/05/30 20:25:07;;;;;;;9.10;2.10;;;39.60;14.00;;;;;;5089660;28;20184;-64
2021/05/30 20:28:05;;;;;;;6.32;1.63;;;39.60;13.80;;;;;;5066726;28;20073;-66
2021/05/30 20:30:24;;;;;;;3.92;1.50;;;40.00;13.70;;;;;;5068527;28;20092;-65
2021/05/30 20:32:50;;;;;;;9.38;1.33;;;39.80;12.00;;;;;;5068486;28;20426;-66
2021/05/30 20:35:17;;;;;;;9.18;2.20;;;39.80;11.60;;;;;;5071862;28;20073;-65
2021/05/30 20:37:44;;;;;;;8.95;3.42;;;39.90;12.90;;;;;;5065963;28;20078;-66
2021/05/30 20:40:12;;;;;;;6.88;2.50;;;39.60;12.50;;;;;;5068322;28;20086;-67
2021/05/30 20:42:38;;;;;;;7.78;3.08;;;39.70;12.70;;;;;;5067555;28;20430;-66
2021/05/30 20:45:10;;;;;;;6.95;1.55;;;40.00;11.90;;;;;;5072525;28;20073;-66
2021/05/30 20:47:40;;;;;;;7.28;1.77;;;40.00;11.10;;;;;;5069504;28;20088;-66
2021/05/30 20:50:09;;;;;;;18.77;4.53;;;39.50;22.50;;;;;;5086056;28;20159;-66
2021/05/30 20:52:37;;;;;;;8.82;2.10;;;39.90;13.50;;;;;;5099732;28;20172;-66
2021/05/30 20:55:05;;;;;;;12.45;1.98;;;40.10;13.30;;;;;;5064019;28;20077;-64
2021/05/30 20:57:31;;;;;;;9.32;3.00;;;39.90;13.20;;;;;;5066354;28;20116;-66
2021/05/30 20:59:58;;;;;;;12.68;2.00;;;39.90;13.80;;;;;;5066414;28;20571;-66
2021/05/30 21:02:26;;;;;;;7.28;2.05;;;39.90;13.50;;;;;;5067938;28;20086;-66
2021/05/30 21:04:53;;;;;;;12.70;2.10;;;39.90;12.80;;;;;;5065518;28;20083;-65
2021/05/30 21:07:19;;;;;;;12.75;3.40;;;39.90;13.80;;;;;;5060079;28;20148;-65
2021/05/30 21:09:46;;;;;;;13.23;2.67;;;40.00;14.10;;;;;;5062445;28;20167;-66
2021/05/30 21:12:14;;;;;;;7.85;1.77;;;40.00;13.70;;;;;;5063442;28;20152;-65
2021/05/30 21:14:42;;;;;;;12.55;3.40;;;39.80;13.50;;;;;;5067387;28;20069;-66
2021/05/30 21:17:09;;;;;;;14.32;2.00;;;39.90;13.20;;;;;;5067341;28;20512;-66
2021/05/30 21:19:36;;;;;;;8.63;1.92;;;39.80;14.00;;;;;;5068635;28;20208;-65
2021/05/30 21:22:02;;;;;;;13.63;3.17;;;39.80;14.20;;;;;;5070024;28;20536;-65
2021/05/30 21:24:29;;;;;;;15.73;2.17;;;39.70;13.50;;;;;;5068227;28;20081;-65
2021/05/30 21:26:55;;;;;;;11.65;2.10;;;39.80;13.50;;;;;;5067172;28;20109;-65
2021/05/30 21:29:22;;;;;;;16.30;2.55;;;39.60;22.90;;;;;;5064670;28;20138;-65
2021/05/30 21:31:48;;;;;;;10.75;2.13;;;39.70;13.80;;;;;;5066933;28;20077;-65
2021/05/30 21:34:15;;;;;;;8.45;2.72;;;39.60;12.90;;;;;;5067708;28;20080;-65
2021/05/30 21:36:41;;;;;;;11.55;2.40;;;39.50;13.90;;;;;;5069969;28;20104;-66
2021/05/30 21:39:11;;;;;;;5.47;1.63;;;39.60;13.90;;;;;;5047952;28;20139;-65
2021/05/30 21:41:38;;;;;;;11.27;2.53;;;39.90;13.30;;;;;;5065158;28;20123;-65
2021/05/30 21:44:05;;;;;;;10.45;2.30;;;40.00;13.50;;;;;;5066418;28;20080;-65
2021/05/30 21:46:31;;;;;;;9.80;2.10;;;39.90;13.30;;;;;;5064581;28;20152;-67
2021/05/30 21:48:58;;;;;;;10.57;2.20;;;40.00;13.10;;;;;;5101349;28;20160;-65
2021/05/30 21:51:25;;;;;;;11.05;2.45;;;39.90;13.20;;;;;;5066009;28;20078;-66
2021/05/30 21:53:51;;;;;;;7.80;2.15;;;40.00;14.00;;;;;;5060411;28;20569;-66
2021/05/30 21:56:18;;;;;;;20.95;2.90;;;40.30;13.20;;;;;;5067621;28;20081;-65
2021/05/30 21:58:44;;;;;;;9.75;2.33;;;40.20;13.40;;;;;;5066499;28;20093;-66
2021/05/30 22:01:11;;;;;;;13.90;2.47;;;40.10;15.20;;;;;;5065423;28;20069;-67
2021/05/30 22:03:38;;;;;;;11.57;2.35;;;40.10;13.90;;;;;;5066686;28;20108;-66
2021/05/30 22:06:05;;;;;;;12.98;2.70;;;40.10;14.80;;;;;;5062300;28;20144;-67
2021/05/30 22:08:31;;;;;;;13.15;2.58;;;40.20;13.50;;;;;;5060933;28;20070;-66
2021/05/30 22:10:58;;;;;;;11.50;2.45;;;40.00;12.90;;;;;;5065397;28;20097;-66
2021/05/30 22:13:24;;;;;;;13.05;2.78;;;40.40;15.00;;;;;;5061077;28;20080;-66
2021/05/30 22:15:54;;;;;;;8.60;2.20;;;40.20;13.80;;;;;;5065740;28;20126;-65
2021/05/30 22:21:07;;;;;;;13.48;2.35;;;40.20;19.70;;;;;;5062332;28;20446;-64
2021/05/30 22:23:34;;;;;;;12.27;2.08;;;40.20;13.20;;;;;;5061961;28;20073;-65
2021/05/30 22:26:00;;;;;;;11.05;1.88;;;40.20;18.40;;;;;;5062716;28;20073;-65
2021/05/30 22:28:27;;;;;;;7.90;2.28;;;40.30;23.70;;;;;;5063779;28;20032;-64
2021/05/30 22:30:53;;;;;;;12.73;2.30;;;40.30;13.00;;;;;;5064615;28;20480;-65
2021/05/30 22:33:20;;;;;;;10.50;1.95;;;40.50;13.00;;;;;;5059640;28;20086;-66
2021/05/30 22:35:47;;;;;;;10.82;2.50;;;40.80;12.40;;;;;;5064221;28;20077;-65
2021/05/30 22:38:14;;;;;;;10.13;2.10;;;40.50;12.80;;;;;;5065999;28;20093;-66
2021/05/30 22:40:41;;;;;;;13.18;2.25;;;40.20;12.20;;;;;;5069491;28;20084;-66
2021/05/30 22:43:08;;;;;;;9.05;2.08;;;40.00;12.40;;;;;;5063710;28;20065;-66
2021/05/30 22:45:35;;;;;;;10.45;2.33;;;39.90;12.40;;;;;;5067400;28;20081;-66
2021/05/30 22:48:02;;;;;;;8.65;1.80;;;40.00;12.20;;;;;;5062767;28;20080;-65
2021/05/30 22:50:28;;;;;;;7.45;2.80;;;39.90;11.90;;;;;;5064356;28;20109;-66
2021/05/30 22:52:55;;;;;;;6.40;1.77;;;39.90;11.90;;;;;;5064057;28;20069;-66
2021/05/30 22:55:21;;;;;;;7.65;2.22;;;39.80;12.30;;;;;;5069300;28;20499;-66
2021/05/30 22:57:48;;;;;;;12.52;1.95;;;39.80;11.70;;;;;;5061843;28;20069;-66
2021/05/30 23:00:19;;;;;;;10.05;1.92;;;39.70;11.80;;;;;;5061914;28;20089;-67
2021/05/30 23:02:46;;;;;;;6.57;1.70;;;39.70;11.80;;;;;;5062575;28;20073;-67
2021/05/30 23:05:13;;;;;;;4.78;1.58;;;39.70;11.60;;;;;;5063469;28;20426;-66
2021/05/30 23:07:40;;;;;;;6.70;3.20;;;39.80;12.20;;;;;;5067550;28;20533;-64
2021/05/30 23:10:11;;;;;;;7.47;1.60;;;39.90;11.70;;;;;;5062162;28;20101;-65
2021/05/30 23:12:41;;;;;;;7.18;1.70;;;39.80;11.60;;;;;;5071461;28;20514;-67
2021/05/30 23:15:10;;;;;;;8.65;1.70;;;39.80;11.80;;;;;;5063162;28;20082;-66
2021/05/30 23:17:37;;;;;;;7.93;1.67;;;39.70;11.50;;;;;;5064528;28;20073;-66
2021/05/30 23:20:06;;;;;;;9.38;1.80;;;39.70;11.80;;;;;;5068649;28;20120;-66
2021/05/30 23:22:35;;;;;;;7.18;1.67;;;39.80;11.90;;;;;;5063452;28;20078;-65
2021/05/30 23:25:05;;;;;;;8.80;1.90;;;39.90;11.90;;;;;;5064446;28;20128;-66
2021/05/30 23:27:33;;;;;;;11.70;1.95;;;39.80;11.20;;;;;;5066397;28;20156;-66
2021/05/30 23:30:00;;;;;;;8.90;1.67;;;39.70;11.80;;;;;;5060642;28;20085;-65
2021/05/30 23:32:27;;;;;;;4.93;1.40;;;39.60;11.50;;;;;;5064258;28;20069;-65
2021/05/30 23:34:53;;;;;;;4.82;1.48;;;39.80;11.40;;;;;;5063382;28;20078;-66
2021/05/30 23:37:20;;;;;;;9.90;1.48;;;39.90;12.20;;;;;;5069868;28;20546;-66
2021/05/30 23:39:48;;;;;;;8.73;1.67;;;39.90;11.80;;;;;;5069737;28;20120;-67
2021/05/30 23:42:15;;;;;;;5.15;1.10;;;39.90;11.50;;;;;;5068205;28;20075;-65
2021/05/30 23:44:42;;;;;;;7.78;1.77;;;39.80;11.60;;;;;;5066821;28;20452;-66
2021/05/30 23:47:08;;;;;;;7.80;1.70;;;39.80;11.80;;;;;;5069387;28;20611;-65
2021/05/30 23:49:36;;;;;;;5.05;1.88;;;39.80;11.70;;;;;;5064692;28;20120;-65
2021/05/30 23:52:03;;;;;;;6.57;1.67;;;39.70;12.10;;;;;;5066990;28;20637;-65
2021/05/30 23:54:30;;;;;;;5.70;1.50;;;39.70;12.20;;;;;;5067053;28;20124;-65
2021/05/30 23:56:57;;;;;;;5.82;1.73;;;39.70;11.80;;;;;;5061847;28;20074;-65
2021/05/30 23:59:23;;;;;;;6.57;1.40;;;39.80;12.40;;;;;;5065576;28;20092;-66
